EDT,Max TemperatureF,Mean TemperatureF,Min TemperatureF,Max Dew PointF,MeanDew PointF,Min DewpointF,Max Humidity, Mean Humidity, Min Humidity, Max Sea Level PressureIn, Mean Sea Level PressureIn, Min Sea Level PressureIn, Max VisibilityMiles, Mean VisibilityMiles, Min VisibilityMiles, Max Wind SpeedMPH, Mean Wind SpeedMPH, Max Gust SpeedMPH,PrecipitationIn, CloudCover, Events, WindDirDegrees
2013-8-1,82,74,66,67,65,63,90,82,60,30.00,29.90,29.83,10,6,2,8,3,17,0.26,7,Rain-Thunderstorm,233
2013-8-2,82,72,61,64,60,54,94,70,38,29.96,29.92,29.86,10,9,2,9,2,16,0.01,1,,265
2013-8-3,75,68,63,64,61,58,87,75,61,29.97,29.94,29.91,10,10,10,10,3,16,0.06,4,Rain,234
2013-8-4,78,67,57,61,54,49,90,65,37,30.04,29.98,29.93,10,10,8,13,6,21,0.00,1,,303
2013-8-5,78,65,53,60,51,47,90,61,36,30.12,30.07,30.04,10,10,10,5,2,,0.00,1,,320
2013-8-6,69,65,61,63,60,55,88,81,73,30.10,30.08,30.04,10,9,2,9,2,,0.12,7,Rain,121
2013-8-7,80,71,64,70,66,62,94,85,68,30.10,30.06,30.01,10,6,0,13,3,20,2.40,7,Fog-Rain-Thunderstorm,137
2013-8-8,84,74,66,71,67,63,94,84,67,30.04,30.02,29.98,10,6,0,13,2,18,0.07,5,Fog-Rain,211
2013-8-9,82,78,73,73,71,68,87,78,67,29.96,29.90,29.86,10,9,1,12,5,21,0.19,5,Rain,229
2013-8-10,82,72,63,68,63,57,93,72,44,30.09,30.04,29.96,10,9,4,6,2,,0.00,1,,283
2013-8-11,84,71,60,68,63,57,90,75,54,30.14,30.08,30.01,10,7,2,13,1,17,0.29,4,Rain-Thunderstorm,299
2013-8-12,84,75,68,68,66,60,94,81,47,30.05,30.01,29.92,10,5,2,8,1,,0.19,5,Rain,352
2013-8-13,82,74,66,68,65,56,94,83,58,29.90,29.81,29.74,10,6,0,23,4,36,2.68,6,Fog-Rain-Thunderstorm,328
2013-8-14,73,62,52,53,49,44,84,60,44,30.11,29.98,29.88,10,10,10,15,7,22,0.00,1,,307
2013-8-15,75,62,48,57,49,44,89,66,33,30.20,30.15,30.11,10,10,10,7,1,,0.00,1,,303
2013-8-16,79,64,50,57,52,45,89,66,35,30.22,30.18,30.15,10,10,8,5,1,,0.01,1,,61
2013-8-17,79,66,52,59,54,49,90,68,40,30.29,30.26,30.22,10,9,5,9,1,,0.00,1,,111
2013-8-18,70,66,59,61,59,55,90,80,61,30.28,30.23,30.19,10,10,6,6,1,,0.09,4,Rain,3
2013-8-19,73,65,57,64,60,54,93,81,71,30.19,30.13,30.08,10,9,5,6,1,,0.00,4,,310
2013-8-20,84,72,59,66,60,55,94,81,44,30.18,30.14,30.10,10,4,0,6,1,,0.01,3,Fog,307
2013-8-21,88,72,57,70,60,54,94,82,55,30.21,30.16,30.07,10,5,0,7,1,,0.00,2,Fog,201
2013-8-22,84,76,68,69,66,64,90,79,56,30.08,30.02,29.93,10,8,2,9,3,,0.14,3,Rain,272
2013-8-23,78,68,57,65,61,55,90,77,48,30.15,30.04,29.96,10,9,4,7,2,,0.00,2,Rain,344
2013-8-24,80,66,53,58,53,48,93,69,34,30.36,30.28,30.17,10,9,6,8,1,,0.01,0,,71
2013-8-25,80,66,52,61,55,49,90,66,40,30.43,30.35,30.28,10,9,5,7,2,,0.00,1,,213
2013-8-26,84,70,57,62,58,51,89,61,47,30.27,30.14,29.99,10,10,10,9,5,,0.00,0,,229
2013-8-27,87,78,71,69,66,61,85,68,51,29.98,29.93,29.88,10,9,5,7,3,,0.02,3,Rain,299
2013-8-28,81,74,69,70,69,66,90,81,69,29.91,29.87,29.83,10,8,4,9,2,,0.01,6,Rain,276
2013-8-29,82,74,66,68,66,63,90,78,52,30.03,29.97,29.88,10,5,2,8,4,,0.00,6,,30
2013-8-30,84,75,66,68,66,64,90,72,49,30.03,29.98,29.88,10,8,4,9,3,,0.00,3,,230
2013-8-31,88,78,69,70,68,65,87,72,53,29.88,29.84,29.79,10,9,4,8,4,,0.01,2,,215